EDDHLBBG

Guest
Details From EDDH - Hamburg
To LBBG - Burgas
Flight Number -
Tags Generated
Created
Modified
Stats Distance 964 nm / 1,786 km
Max Altitude 0 ft / 0 m
Waypoints 6
Social Downloads 0
Likes 0
Share VATSIM

Download

Looking for another format? Having issues loading an existing format? Contact us
Advertisement - Login to hide

Notes

Generated

Route

EDDH RO INPOX EPUKI B LBBG

ID Type Via Altitude Latitude Longitude Leg Dist Tot Dist Heading (true) Name
O EDDH APT - 0 ft / 0 m 53.65441˚ 9.97521˚ - 0 nm - -
RO NDB - 0 ft / 0 m 51.34363˚ 14.95203˚ 228 nm 228 nm 125° / 129° ROTHENBURG NDB
INPOX FIX - 0 ft / 0 m 48.63528˚ 19.62000˚ 242 nm 471 nm 130° / 134° -
EPUKI FIX - 0 ft / 0 m 45.49351˚ 24.06413˚ 261 nm 733 nm 134° / 138° -
B NDB - 0 ft / 0 m 42.55354˚ 27.49328˚ 230 nm 963 nm 139° / 141° BURGAS NDB
O LBBG APT - 0 ft / 0 m 42.55983˚ 27.50160˚ 0 nm 964 nm 44° / 44° -

Altitude Profile

Advertisement - Login to hide

Weather


0- 5 10 15 20 25 30 35+ Temperature / ° C

Clouds and Precipitation
Forecast for 2018-05-25 12:00 UTC. Updated 6 hours ago

Ground ~20,000 ft ~40,000 ft Winds

EDDH

Details ICAO EDDH (HAM)
Name Hamburg
Region Germany - Civil
Timezone Europe/Berlin (UTC+2.0)
Stats Elevation 53 ft / 16 m (AMSL)
Location 53.633665° 9.985235°
Runways 2
Magnetic Variation 2.848° E

METAR

EDDH 251650Z 05015KT CAVOK 19/06 Q1021 TEMPO 06015G25KT

Decode

TAF

TAF EDDH 251100Z 2512/2618 07014KT CAVOK TEMPO 2512/2517 08015G25KT BECMG 2518/2520 06005KT BECMG 2608/2610 06010KT

Decode

Departure Runways

ID Width Length Bearing (true) Bearing (mag) Surface Threshold Offset Overrun Length
05 151 ft / 46 m 10,647 ft / 3,245 m 50.18° 47.33° Asphalt 978 ft / 298 m 194 ft / 59 m
15 151 ft / 46 m 12,013 ft / 3,662 m 152.89° 150.04° Asphalt 0 ft / 0 m 194 ft / 59 m
23 151 ft / 46 m 10,647 ft / 3,245 m 230.22° 227.37° Asphalt 509 ft / 155 m 240 ft / 73 m
33 151 ft / 46 m 12,013 ft / 3,662 m 332.91° 330.06° Asphalt 1,463 ft / 446 m 164 ft / 50 m

LBBG

Details ICAO LBBG (BOJ)
Name Burgas
Region Bulgaria
Timezone Europe/Sofia (UTC+3.0)
Stats Elevation 135 ft / 41 m (AMSL)
Location 42.570130° 27.515240°
Runways 1
Magnetic Variation 5.548° E

METAR

LBBG 251700Z 04007KT CAVOK 22/16 Q1013 NOSIG

Decode

TAF

TAF TAF LBBG 251100Z 2512/2612 06016KT 9999 SCT045 TEMPO 2512/2517 VRB18G28KT 5000 TSRA SCT025CB BKN040 BECMG 2518/2520 01012KT

Decode

Destination Runways

ID Width Length Bearing (true) Bearing (mag) Surface Threshold Offset Overrun Length
04 148 ft / 45 m 10,502 ft / 3,201 m 44.28° 38.73° Concrete 0 ft / 0 m 190 ft / 58 m
22 148 ft / 45 m 10,502 ft / 3,201 m 224.29° 218.74° Concrete 0 ft / 0 m 190 ft / 58 m

Approach Navaids

Runway Type Ident Frequency Range Bearing (true) Bearing (mag) Slope Elevation
22 Localiser IBG 110.30 MHz 18 nm / 33 km 224.26° 218.72° - 135 ft / 41 m (AMSL)
22 Glidescope IBG 110.30 MHz 10 nm / 19 km 224.28° 218.74° 3.00° 135 ft / 41 m (AMSL)

Popular Alternatives